sensor_id;sensor_type;location;lat;lon;timestamp;temperature;humidity
3051;DHT22;1535;51.098;6.414;2022-07-06T00:00:13;11.30;99.90
3051;DHT22;1535;51.098;6.414;2022-07-06T00:02:40;11.30;99.90
3051;DHT22;1535;51.098;6.414;2022-07-06T00:05:08;11.30;99.90
3051;DHT22;1535;51.098;6.414;2022-07-06T00:07:35;11.20;99.90
3051;DHT22;1535;51.098;6.414;2022-07-06T00:10:04;11.20;99.90
3051;DHT22;1535;51.098;6.414;2022-07-06T00:12:32;11.20;99.90
3051;DHT22;1535;51.098;6.414;2022-07-06T00:14:59;11.20;99.90
3051;DHT22;1535;51.098;6.414;2022-07-06T00:17:26;11.10;99.90
3051;DHT22;1535;51.098;6.414;2022-07-06T00:19:53;11.10;99.90
3051;DHT22;1535;51.098;6.414;2022-07-06T00:22:19;11.00;99.90
3051;DHT22;1535;51.098;6.414;2022-07-06T00:24:46;10.90;99.90
3051;DHT22;1535;51.098;6.414;2022-07-06T00:27:14;10.70;99.90
3051;DHT22;1535;51.098;6.414;2022-07-06T00:29:42;10.60;99.90
3051;DHT22;1535;51.098;6.414;2022-07-06T00:32:09;10.50;99.90
3051;DHT22;1535;51.098;6.414;2022-07-06T00:34:37;10.50;99.90
3051;DHT22;1535;51.098;6.414;2022-07-06T00:37:06;10.30;99.90
3051;DHT22;1535;51.098;6.414;2022-07-06T00:39:33;10.30;99.90
3051;DHT22;1535;51.098;6.414;2022-07-06T00:42:00;10.20;99.90
3051;DHT22;1535;51.098;6.414;2022-07-06T00:44:29;10.10;99.90
3051;DHT22;1535;51.098;6.414;2022-07-06T00:46:57;10.10;99.90
3051;DHT22;1535;51.098;6.414;2022-07-06T00:49:25;10.00;99.90
3051;DHT22;1535;51.098;6.414;2022-07-06T00:52:10;10.00;99.90
3051;DHT22;1535;51.098;6.414;2022-07-06T00:54:39;9.90;99.90
3051;DHT22;1535;51.098;6.414;2022-07-06T00:57:07;9.90;99.90
3051;DHT22;1535;51.098;6.414;2022-07-06T00:59:36;9.90;99.90
3051;DHT22;1535;51.098;6.414;2022-07-06T01:02:04;9.80;99.90
3051;DHT22;1535;51.098;6.414;2022-07-06T01:04:31;9.80;99.90
3051;DHT22;1535;51.098;6.414;2022-07-06T01:06:58;9.70;99.90
3051;DHT22;1535;51.098;6.414;2022-07-06T01:09:25;9.70;99.90
3051;DHT22;1535;51.098;6.414;2022-07-06T01:11:52;9.70;99.90
3051;DHT22;1535;51.098;6.414;2022-07-06T01:14:20;9.70;99.90
3051;DHT22;1535;51.098;6.414;2022-07-06T01:16:49;9.60;99.90
3051;DHT22;1535;51.098;6.414;2022-07-06T01:19:16;9.60;99.90
3051;DHT22;1535;51.098;6.414;2022-07-06T01:21:44;9.60;99.90
3051;DHT22;1535;51.098;6.414;2022-07-06T01:24:11;9.60;99.90
3051;DHT22;1535;51.098;6.414;2022-07-06T01:26:38;9.60;99.90
3051;DHT22;1535;51.098;6.414;2022-07-06T01:29:06;9.60;99.90
3051;DHT22;1535;51.098;6.414;2022-07-06T01:31:34;9.50;99.90
3051;DHT22;1535;51.098;6.414;2022-07-06T01:34:01;9.50;99.90
3051;DHT22;1535;51.098;6.414;2022-07-06T01:36:28;9.40;99.90
3051;DHT22;1535;51.098;6.414;2022-07-06T01:38:57;9.30;99.90
3051;DHT22;1535;51.098;6.414;2022-07-06T01:41:24;9.30;99.90
3051;DHT22;1535;51.098;6.414;2022-07-06T01:43:52;9.20;99.90
3051;DHT22;1535;51.098;6.414;2022-07-06T01:46:19;9.20;99.90
3051;DHT22;1535;51.098;6.414;2022-07-06T01:48:47;9.20;99.90
3051;DHT22;1535;51.098;6.414;2022-07-06T01:51:15;9.30;99.90
3051;DHT22;1535;51.098;6.414;2022-07-06T01:53:43;9.20;99.90
3051;DHT22;1535;51.098;6.414;2022-07-06T01:56:13;9.20;99.90
3051;DHT22;1535;51.098;6.414;2022-07-06T01:58:40;9.10;99.90
3051;DHT22;1535;51.098;6.414;2022-07-06T02:01:07;9.10;99.90
3051;DHT22;1535;51.098;6.414;2022-07-06T02:03:34;9.00;99.90
3051;DHT22;1535;51.098;6.414;2022-07-06T02:06:01;9.00;99.90
3051;DHT22;1535;51.098;6.414;2022-07-06T02:08:28;8.90;99.90
3051;DHT22;1535;51.098;6.414;2022-07-06T02:10:55;8.90;99.90
3051;DHT22;1535;51.098;6.414;2022-07-06T02:13:23;8.80;99.90
3051;DHT22;1535;51.098;6.414;2022-07-06T02:15:50;8.80;99.90
3051;DHT22;1535;51.098;6.414;2022-07-06T02:18:18;8.90;99.90
3051;DHT22;1535;51.098;6.414;2022-07-06T02:20:45;8.90;99.90
3051;DHT22;1535;51.098;6.414;2022-07-06T02:23:13;8.80;99.90
3051;DHT22;1535;51.098;6.414;2022-07-06T02:25:40;8.80;99.90
3051;DHT22;1535;51.098;6.414;2022-07-06T02:28:08;8.80;99.90
3051;DHT22;1535;51.098;6.414;2022-07-06T02:30:36;8.80;99.90
3051;DHT22;1535;51.098;6.414;2022-07-06T02:33:03;8.80;99.90
3051;DHT22;1535;51.098;6.414;2022-07-06T02:35:30;8.80;99.90
3051;DHT22;1535;51.098;6.414;2022-07-06T02:37:58;8.80;99.90
3051;DHT22;1535;51.098;6.414;2022-07-06T02:40:25;8.90;99.90
3051;DHT22;1535;51.098;6.414;2022-07-06T02:42:52;8.90;99.90
3051;DHT22;1535;51.098;6.414;2022-07-06T02:45:19;8.80;99.90
3051;DHT22;1535;51.098;6.414;2022-07-06T02:47:47;8.80;99.90
3051;DHT22;1535;51.098;6.414;2022-07-06T02:50:16;8.80;99.90
3051;DHT22;1535;51.098;6.414;2022-07-06T02:52:43;8.80;99.90
3051;DHT22;1535;51.098;6.414;2022-07-06T02:55:11;8.80;99.90
3051;DHT22;1535;51.098;6.414;2022-07-06T02:57:37;8.80;99.90
3051;DHT22;1535;51.098;6.414;2022-07-06T03:00:05;8.70;99.90
3051;DHT22;1535;51.098;6.414;2022-07-06T03:02:33;8.70;99.90
3051;DHT22;1535;51.098;6.414;2022-07-06T03:05:01;8.70;99.90
3051;DHT22;1535;51.098;6.414;2022-07-06T03:07:30;8.70;99.90
3051;DHT22;1535;51.098;6.414;2022-07-06T03:09:56;8.70;99.90
3051;DHT22;1535;51.098;6.414;2022-07-06T03:12:38;8.60;99.90
3051;DHT22;1535;51.098;6.414;2022-07-06T03:15:06;8.50;99.90
3051;DHT22;1535;51.098;6.414;2022-07-06T03:17:35;8.50;99.90
3051;DHT22;1535;51.098;6.414;2022-07-06T03:20:05;8.50;99.90
3051;DHT22;1535;51.098;6.414;2022-07-06T03:22:32;8.40;99.90
3051;DHT22;1535;51.098;6.414;2022-07-06T03:24:59;8.40;99.90
3051;DHT22;1535;51.098;6.414;2022-07-06T03:27:26;8.40;99.90
3051;DHT22;1535;51.098;6.414;2022-07-06T03:29:53;8.30;99.90
3051;DHT22;1535;51.098;6.414;2022-07-06T03:32:20;8.40;99.90
3051;DHT22;1535;51.098;6.414;2022-07-06T03:34:47;8.40;99.90
3051;DHT22;1535;51.098;6.414;2022-07-06T03:37:15;8.40;99.90
3051;DHT22;1535;51.098;6.414;2022-07-06T03:39:41;8.50;99.90
3051;DHT22;1535;51.098;6.414;2022-07-06T03:42:08;8.50;99.90
3051;DHT22;1535;51.098;6.414;2022-07-06T03:44:35;8.60;99.90
3051;DHT22;1535;51.098;6.414;2022-07-06T03:47:02;8.60;99.90
3051;DHT22;1535;51.098;6.414;2022-07-06T03:49:29;8.60;99.90
3051;DHT22;1535;51.098;6.414;2022-07-06T03:51:56;8.60;99.90
3051;DHT22;1535;51.098;6.414;2022-07-06T03:54:24;8.70;99.90
3051;DHT22;1535;51.098;6.414;2022-07-06T03:56:51;8.80;99.90
3051;DHT22;1535;51.098;6.414;2022-07-06T03:59:17;8.80;99.90
3051;DHT22;1535;51.098;6.414;2022-07-06T04:01:44;8.80;99.90
3051;DHT22;1535;51.098;6.414;2022-07-06T04:04:11;8.70;99.90
3051;DHT22;1535;51.098;6.414;2022-07-06T04:06:38;8.70;99.90
3051;DHT22;1535;51.098;6.414;2022-07-06T04:09:05;8.70;99.90
3051;DHT22;1535;51.098;6.414;2022-07-06T04:11:33;8.70;99.90
3051;DHT22;1535;51.098;6.414;2022-07-06T04:14:00;8.70;99.90
3051;DHT22;1535;51.098;6.414;2022-07-06T04:16:27;8.70;99.90
3051;DHT22;1535;51.098;6.414;2022-07-06T04:18:53;8.80;99.90
3051;DHT22;1535;51.098;6.414;2022-07-06T04:21:20;8.90;99.90
3051;DHT22;1535;51.098;6.414;2022-07-06T04:23:47;9.00;99.90
3051;DHT22;1535;51.098;6.414;2022-07-06T04:26:14;9.00;99.90
3051;DHT22;1535;51.098;6.414;2022-07-06T04:28:42;9.10;99.90
3051;DHT22;1535;51.098;6.414;2022-07-06T04:31:09;9.20;99.90
3051;DHT22;1535;51.098;6.414;2022-07-06T04:33:36;9.20;99.90
3051;DHT22;1535;51.098;6.414;2022-07-06T04:36:03;9.20;99.90
3051;DHT22;1535;51.098;6.414;2022-07-06T04:38:30;9.30;99.90
3051;DHT22;1535;51.098;6.414;2022-07-06T04:40:57;9.30;99.90
3051;DHT22;1535;51.098;6.414;2022-07-06T04:43:24;9.30;99.90
3051;DHT22;1535;51.098;6.414;2022-07-06T04:45:52;9.40;99.90
3051;DHT22;1535;51.098;6.414;2022-07-06T04:48:19;9.50;99.90
3051;DHT22;1535;51.098;6.414;2022-07-06T04:50:46;9.50;99.90
3051;DHT22;1535;51.098;6.414;2022-07-06T04:53:13;9.70;99.90
3051;DHT22;1535;51.098;6.414;2022-07-06T04:55:40;9.90;99.90
3051;DHT22;1535;51.098;6.414;2022-07-06T04:58:06;9.90;99.90
3051;DHT22;1535;51.098;6.414;2022-07-06T05:00:34;10.10;99.90
3051;DHT22;1535;51.098;6.414;2022-07-06T05:03:02;10.20;99.90
3051;DHT22;1535;51.098;6.414;2022-07-06T05:05:29;10.40;99.90
3051;DHT22;1535;51.098;6.414;2022-07-06T05:08:10;10.60;99.90
3051;DHT22;1535;51.098;6.414;2022-07-06T05:10:37;10.70;99.90
3051;DHT22;1535;51.098;6.414;2022-07-06T05:13:04;10.80;99.90
3051;DHT22;1535;51.098;6.414;2022-07-06T05:15:31;10.90;99.90
3051;DHT22;1535;51.098;6.414;2022-07-06T05:17:58;11.10;99.90
3051;DHT22;1535;51.098;6.414;2022-07-06T05:20:26;11.20;99.90
3051;DHT22;1535;51.098;6.414;2022-07-06T05:22:54;11.40;99.90
3051;DHT22;1535;51.098;6.414;2022-07-06T05:25:20;11.60;99.90
3051;DHT22;1535;51.098;6.414;2022-07-06T05:27:48;11.70;99.90
3051;DHT22;1535;51.098;6.414;2022-07-06T05:30:15;11.90;99.90
3051;DHT22;1535;51.098;6.414;2022-07-06T05:32:42;12.00;99.90
3051;DHT22;1535;51.098;6.414;2022-07-06T05:35:09;12.10;99.90
3051;DHT22;1535;51.098;6.414;2022-07-06T05:37:37;12.20;99.90
3051;DHT22;1535;51.098;6.414;2022-07-06T05:40:05;12.40;99.90
3051;DHT22;1535;51.098;6.414;2022-07-06T05:42:31;12.40;99.90
3051;DHT22;1535;51.098;6.414;2022-07-06T05:44:58;12.50;99.90
3051;DHT22;1535;51.098;6.414;2022-07-06T05:47:25;12.60;99.90
3051;DHT22;1535;51.098;6.414;2022-07-06T05:50:09;12.70;99.90
3051;DHT22;1535;51.098;6.414;2022-07-06T05:52:40;12.90;99.90
3051;DHT22;1535;51.098;6.414;2022-07-06T05:55:08;12.90;99.90
3051;DHT22;1535;51.098;6.414;2022-07-06T05:57:35;13.00;99.90
3051;DHT22;1535;51.098;6.414;2022-07-06T06:00:03;13.10;99.90
3051;DHT22;1535;51.098;6.414;2022-07-06T06:02:37;13.20;99.90
3051;DHT22;1535;51.098;6.414;2022-07-06T06:05:05;13.30;99.90
3051;DHT22;1535;51.098;6.414;2022-07-06T06:07:33;13.40;99.90
3051;DHT22;1535;51.098;6.414;2022-07-06T06:10:03;13.40;99.90
3051;DHT22;1535;51.098;6.414;2022-07-06T06:12:31;13.50;99.90
3051;DHT22;1535;51.098;6.414;2022-07-06T06:14:58;13.60;99.90
3051;DHT22;1535;51.098;6.414;2022-07-06T06:17:25;13.70;99.90
3051;DHT22;1535;51.098;6.414;2022-07-06T06:19:52;13.80;99.90
3051;DHT22;1535;51.098;6.414;2022-07-06T06:22:19;14.00;99.90
3051;DHT22;1535;51.098;6.414;2022-07-06T06:24:46;14.20;99.90
3051;DHT22;1535;51.098;6.414;2022-07-06T06:27:15;14.40;99.90
3051;DHT22;1535;51.098;6.414;2022-07-06T06:29:42;14.60;99.90
3051;DHT22;1535;51.098;6.414;2022-07-06T06:32:10;14.70;99.90
3051;DHT22;1535;51.098;6.414;2022-07-06T06:34:37;14.80;99.90
3051;DHT22;1535;51.098;6.414;2022-07-06T06:37:04;15.00;99.90
3051;DHT22;1535;51.098;6.414;2022-07-06T06:39:31;15.10;99.90
3051;DHT22;1535;51.098;6.414;2022-07-06T06:41:58;15.30;99.90
3051;DHT22;1535;51.098;6.414;2022-07-06T06:44:27;15.40;99.90
3051;DHT22;1535;51.098;6.414;2022-07-06T06:46:54;15.50;99.90
3051;DHT22;1535;51.098;6.414;2022-07-06T06:49:20;15.60;99.90
3051;DHT22;1535;51.098;6.414;2022-07-06T06:51:47;15.70;99.90
3051;DHT22;1535;51.098;6.414;2022-07-06T06:54:14;15.80;99.90
3051;DHT22;1535;51.098;6.414;2022-07-06T06:56:41;15.90;99.90
3051;DHT22;1535;51.098;6.414;2022-07-06T06:59:08;16.10;99.90
3051;DHT22;1535;51.098;6.414;2022-07-06T07:01:36;16.40;99.90
3051;DHT22;1535;51.098;6.414;2022-07-06T07:04:03;16.80;99.90
3051;DHT22;1535;51.098;6.414;2022-07-06T07:06:31;17.10;99.90
3051;DHT22;1535;51.098;6.414;2022-07-06T07:08:58;17.20;99.90
3051;DHT22;1535;51.098;6.414;2022-07-06T07:11:25;17.20;99.90
3051;DHT22;1535;51.098;6.414;2022-07-06T07:13:52;17.00;99.90
3051;DHT22;1535;51.098;6.414;2022-07-06T07:16:19;16.90;99.90
3051;DHT22;1535;51.098;6.414;2022-07-06T07:18:47;16.80;99.90
3051;DHT22;1535;51.098;6.414;2022-07-06T07:21:14;16.60;99.90
3051;DHT22;1535;51.098;6.414;2022-07-06T07:23:41;16.50;99.90
3051;DHT22;1535;51.098;6.414;2022-07-06T07:26:08;16.50;99.90
3051;DHT22;1535;51.098;6.414;2022-07-06T07:28:35;16.50;99.90
3051;DHT22;1535;51.098;6.414;2022-07-06T07:31:03;16.50;99.90
3051;DHT22;1535;51.098;6.414;2022-07-06T07:33:30;16.50;99.90
3051;DHT22;1535;51.098;6.414;2022-07-06T07:35:59;16.60;99.90
3051;DHT22;1535;51.098;6.414;2022-07-06T07:38:26;16.80;99.90
3051;DHT22;1535;51.098;6.414;2022-07-06T07:40:53;17.00;99.90
3051;DHT22;1535;51.098;6.414;2022-07-06T07:43:20;17.20;99.90
3051;DHT22;1535;51.098;6.414;2022-07-06T07:45:48;17.20;99.90
3051;DHT22;1535;51.098;6.414;2022-07-06T07:48:14;17.40;99.90
3051;DHT22;1535;51.098;6.414;2022-07-06T07:50:42;17.60;99.90
3051;DHT22;1535;51.098;6.414;2022-07-06T07:53:10;17.80;99.90
3051;DHT22;1535;51.098;6.414;2022-07-06T07:55:37;17.70;99.90
3051;DHT22;1535;51.098;6.414;2022-07-06T07:58:04;17.40;99.90
3051;DHT22;1535;51.098;6.414;2022-07-06T08:00:31;17.40;99.90
3051;DHT22;1535;51.098;6.414;2022-07-06T08:02:59;17.10;99.90
3051;DHT22;1535;51.098;6.414;2022-07-06T08:05:26;17.00;99.90
3051;DHT22;1535;51.098;6.414;2022-07-06T08:07:53;16.90;99.90
3051;DHT22;1535;51.098;6.414;2022-07-06T08:10:21;16.90;99.90
3051;DHT22;1535;51.098;6.414;2022-07-06T08:12:49;16.90;99.90
3051;DHT22;1535;51.098;6.414;2022-07-06T08:15:16;16.90;99.90
3051;DHT22;1535;51.098;6.414;2022-07-06T08:17:43;16.80;99.90
3051;DHT22;1535;51.098;6.414;2022-07-06T08:20:11;16.90;99.90
3051;DHT22;1535;51.098;6.414;2022-07-06T08:22:38;17.10;99.90
3051;DHT22;1535;51.098;6.414;2022-07-06T08:25:06;17.40;99.90
3051;DHT22;1535;51.098;6.414;2022-07-06T08:27:34;17.80;99.90
3051;DHT22;1535;51.098;6.414;2022-07-06T08:30:02;18.00;99.90
3051;DHT22;1535;51.098;6.414;2022-07-06T08:32:29;18.10;99.90
3051;DHT22;1535;51.098;6.414;2022-07-06T08:34:55;18.30;99.90
3051;DHT22;1535;51.098;6.414;2022-07-06T08:37:22;18.60;99.90
3051;DHT22;1535;51.098;6.414;2022-07-06T08:39:49;18.80;99.90
3051;DHT22;1535;51.098;6.414;2022-07-06T08:42:17;18.90;99.90
3051;DHT22;1535;51.098;6.414;2022-07-06T08:44:46;19.10;99.90
3051;DHT22;1535;51.098;6.414;2022-07-06T08:47:14;19.30;99.90
3051;DHT22;1535;51.098;6.414;2022-07-06T08:49:42;19.20;99.90
3051;DHT22;1535;51.098;6.414;2022-07-06T08:52:09;19.10;99.90
3051;DHT22;1535;51.098;6.414;2022-07-06T08:54:38;19.60;99.90
3051;DHT22;1535;51.098;6.414;2022-07-06T08:57:05;20.30;99.90
3051;DHT22;1535;51.098;6.414;2022-07-06T08:59:32;21.10;99.90
3051;DHT22;1535;51.098;6.414;2022-07-06T09:02:03;22.10;99.90
3051;DHT22;1535;51.098;6.414;2022-07-06T09:04:32;22.40;99.90
3051;DHT22;1535;51.098;6.414;2022-07-06T09:06:59;21.80;99.90
3051;DHT22;1535;51.098;6.414;2022-07-06T09:09:29;21.60;99.90
3051;DHT22;1535;51.098;6.414;2022-07-06T09:11:57;20.70;99.90
3051;DHT22;1535;51.098;6.414;2022-07-06T09:14:24;20.50;99.90
3051;DHT22;1535;51.098;6.414;2022-07-06T09:17:01;20.50;99.90
3051;DHT22;1535;51.098;6.414;2022-07-06T09:19:30;20.30;99.90
3051;DHT22;1535;51.098;6.414;2022-07-06T09:21:57;20.30;99.90
3051;DHT22;1535;51.098;6.414;2022-07-06T09:24:24;20.70;99.90
3051;DHT22;1535;51.098;6.414;2022-07-06T09:26:53;21.10;99.90
3051;DHT22;1535;51.098;6.414;2022-07-06T09:29:27;21.30;97.80
3051;DHT22;1535;51.098;6.414;2022-07-06T09:31:58;21.10;98.10
3051;DHT22;1535;51.098;6.414;2022-07-06T09:34:25;21.00;97.70
3051;DHT22;1535;51.098;6.414;2022-07-06T09:37:07;20.80;98.40
3051;DHT22;1535;51.098;6.414;2022-07-06T09:39:35;20.30;98.10
3051;DHT22;1535;51.098;6.414;2022-07-06T09:42:03;20.20;99.60
3051;DHT22;1535;51.098;6.414;2022-07-06T09:44:33;20.30;97.30
3051;DHT22;1535;51.098;6.414;2022-07-06T09:47:04;20.40;96.80
3051;DHT22;1535;51.098;6.414;2022-07-06T09:49:31;20.80;96.80
3051;DHT22;1535;51.098;6.414;2022-07-06T09:51:59;21.40;95.40
3051;DHT22;1535;51.098;6.414;2022-07-06T09:54:28;21.90;94.20
3051;DHT22;1535;51.098;6.414;2022-07-06T09:56:56;22.00;93.30
3051;DHT22;1535;51.098;6.414;2022-07-06T09:59:24;22.40;93.10
3051;DHT22;1535;51.098;6.414;2022-07-06T10:01:53;22.50;93.10
3051;DHT22;1535;51.098;6.414;2022-07-06T10:04:20;22.50;91.10
3051;DHT22;1535;51.098;6.414;2022-07-06T10:06:48;22.70;91.10
3051;DHT22;1535;51.098;6.414;2022-07-06T10:09:16;22.70;92.10
3051;DHT22;1535;51.098;6.414;2022-07-06T10:11:48;23.00;90.90
3051;DHT22;1535;51.098;6.414;2022-07-06T10:14:18;23.60;89.30
3051;DHT22;1535;51.098;6.414;2022-07-06T10:16:46;24.40;83.70
3051;DHT22;1535;51.098;6.414;2022-07-06T10:19:16;25.20;82.10
3051;DHT22;1535;51.098;6.414;2022-07-06T10:21:44;25.40;76.60
3051;DHT22;1535;51.098;6.414;2022-07-06T10:24:12;24.80;71.90
3051;DHT22;1535;51.098;6.414;2022-07-06T10:26:40;24.70;73.90
3051;DHT22;1535;51.098;6.414;2022-07-06T10:29:10;24.80;74.10
3051;DHT22;1535;51.098;6.414;2022-07-06T10:31:39;24.30;74.20
3051;DHT22;1535;51.098;6.414;2022-07-06T10:34:09;23.20;73.80
3051;DHT22;1535;51.098;6.414;2022-07-06T10:36:38;22.90;78.50
3051;DHT22;1535;51.098;6.414;2022-07-06T10:39:05;23.00;81.10
3051;DHT22;1535;51.098;6.414;2022-07-06T10:41:46;23.40;79.90
3051;DHT22;1535;51.098;6.414;2022-07-06T10:44:19;23.90;76.10
3051;DHT22;1535;51.098;6.414;2022-07-06T10:46:53;24.20;76.20
3051;DHT22;1535;51.098;6.414;2022-07-06T10:49:21;24.60;77.30
3051;DHT22;1535;51.098;6.414;2022-07-06T10:51:48;25.10;76.20
3051;DHT22;1535;51.098;6.414;2022-07-06T10:54:17;25.50;75.50
3051;DHT22;1535;51.098;6.414;2022-07-06T10:56:45;25.70;73.60
3051;DHT22;1535;51.098;6.414;2022-07-06T10:59:14;25.50;75.00
3051;DHT22;1535;51.098;6.414;2022-07-06T11:02:11;26.00;69.90
3051;DHT22;1535;51.098;6.414;2022-07-06T11:04:38;26.30;68.40
3051;DHT22;1535;51.098;6.414;2022-07-06T11:07:10;25.50;69.40
3051;DHT22;1535;51.098;6.414;2022-07-06T11:09:37;24.30;71.50
3051;DHT22;1535;51.098;6.414;2022-07-06T11:12:15;24.10;72.00
3051;DHT22;1535;51.098;6.414;2022-07-06T11:14:44;23.80;73.70
3051;DHT22;1535;51.098;6.414;2022-07-06T11:17:13;23.70;75.10
3051;DHT22;1535;51.098;6.414;2022-07-06T11:19:49;23.90;75.20
3051;DHT22;1535;51.098;6.414;2022-07-06T11:22:17;23.50;76.10
3051;DHT22;1535;51.098;6.414;2022-07-06T11:24:45;23.60;76.20
3051;DHT22;1535;51.098;6.414;2022-07-06T11:27:13;23.60;74.70
3051;DHT22;1535;51.098;6.414;2022-07-06T11:29:40;23.50;74.40
3051;DHT22;1535;51.098;6.414;2022-07-06T11:32:09;23.90;72.80
3051;DHT22;1535;51.098;6.414;2022-07-06T11:34:38;24.10;74.50
3051;DHT22;1535;51.098;6.414;2022-07-06T11:37:07;24.00;73.80
3051;DHT22;1535;51.098;6.414;2022-07-06T11:39:36;24.50;71.50
3051;DHT22;1535;51.098;6.414;2022-07-06T11:42:05;25.40;66.30
3051;DHT22;1535;51.098;6.414;2022-07-06T11:44:33;25.40;64.80
3051;DHT22;1535;51.098;6.414;2022-07-06T11:47:00;25.20;64.60
3051;DHT22;1535;51.098;6.414;2022-07-06T11:49:29;25.30;63.10
3051;DHT22;1535;51.098;6.414;2022-07-06T11:51:58;25.40;63.40
3051;DHT22;1535;51.098;6.414;2022-07-06T11:54:25;25.10;63.90
3051;DHT22;1535;51.098;6.414;2022-07-06T11:56:54;24.80;62.60
3051;DHT22;1535;51.098;6.414;2022-07-06T11:59:23;24.30;65.60
3051;DHT22;1535;51.098;6.414;2022-07-06T12:01:59;23.90;66.80
3051;DHT22;1535;51.098;6.414;2022-07-06T12:04:27;23.50;69.20
3051;DHT22;1535;51.098;6.414;2022-07-06T12:06:54;23.40;68.30
3051;DHT22;1535;51.098;6.414;2022-07-06T12:09:22;24.10;67.00
3051;DHT22;1535;51.098;6.414;2022-07-06T12:11:49;24.50;67.40
3051;DHT22;1535;51.098;6.414;2022-07-06T12:14:17;24.50;64.20
3051;DHT22;1535;51.098;6.414;2022-07-06T12:16:45;24.70;65.00
3051;DHT22;1535;51.098;6.414;2022-07-06T12:19:12;24.60;63.90
3051;DHT22;1535;51.098;6.414;2022-07-06T12:21:44;24.40;63.00
3051;DHT22;1535;51.098;6.414;2022-07-06T12:24:17;24.80;63.20
3051;DHT22;1535;51.098;6.414;2022-07-06T12:26:46;25.20;63.50
3051;DHT22;1535;51.098;6.414;2022-07-06T12:29:13;25.30;60.50
3051;DHT22;1535;51.098;6.414;2022-07-06T12:31:43;25.40;59.50
3051;DHT22;1535;51.098;6.414;2022-07-06T12:34:15;25.60;59.60
3051;DHT22;1535;51.098;6.414;2022-07-06T12:36:44;25.90;61.50
3051;DHT22;1535;51.098;6.414;2022-07-06T12:39:11;25.90;59.30
3051;DHT22;1535;51.098;6.414;2022-07-06T12:41:44;25.70;58.80
3051;DHT22;1535;51.098;6.414;2022-07-06T12:44:13;25.80;60.10
3051;DHT22;1535;51.098;6.414;2022-07-06T12:46:41;25.40;60.70
3051;DHT22;1535;51.098;6.414;2022-07-06T12:49:14;25.90;59.30
3051;DHT22;1535;51.098;6.414;2022-07-06T12:51:56;26.70;56.40
3051;DHT22;1535;51.098;6.414;2022-07-06T12:54:24;26.70;55.10
3051;DHT22;1535;51.098;6.414;2022-07-06T12:57:09;27.30;55.50
3051;DHT22;1535;51.098;6.414;2022-07-06T12:59:41;27.50;55.30
3051;DHT22;1535;51.098;6.414;2022-07-06T13:02:17;27.10;54.50
3051;DHT22;1535;51.098;6.414;2022-07-06T13:04:54;26.20;54.80
3051;DHT22;1535;51.098;6.414;2022-07-06T13:07:21;26.50;55.70
3051;DHT22;1535;51.098;6.414;2022-07-06T13:09:48;26.40;55.40
3051;DHT22;1535;51.098;6.414;2022-07-06T13:12:15;26.60;54.70
3051;DHT22;1535;51.098;6.414;2022-07-06T13:14:44;27.10;54.50
3051;DHT22;1535;51.098;6.414;2022-07-06T13:17:10;27.80;54.70
3051;DHT22;1535;51.098;6.414;2022-07-06T13:19:37;28.00;52.90
3051;DHT22;1535;51.098;6.414;2022-07-06T13:22:04;28.70;51.50
3051;DHT22;1535;51.098;6.414;2022-07-06T13:24:31;29.00;51.30
3051;DHT22;1535;51.098;6.414;2022-07-06T13:26:58;29.00;50.10
3051;DHT22;1535;51.098;6.414;2022-07-06T13:29:25;29.80;50.30
3051;DHT22;1535;51.098;6.414;2022-07-06T13:31:53;29.70;49.70
3051;DHT22;1535;51.098;6.414;2022-07-06T13:34:20;30.40;48.60
3051;DHT22;1535;51.098;6.414;2022-07-06T13:36:47;29.90;47.00
3051;DHT22;1535;51.098;6.414;2022-07-06T13:39:14;29.50;48.60
3051;DHT22;1535;51.098;6.414;2022-07-06T13:41:42;28.90;48.70
3051;DHT22;1535;51.098;6.414;2022-07-06T13:44:09;28.50;48.20
3051;DHT22;1535;51.098;6.414;2022-07-06T13:46:37;28.90;48.90
3051;DHT22;1535;51.098;6.414;2022-07-06T13:49:07;28.90;49.20
3051;DHT22;1535;51.098;6.414;2022-07-06T13:51:33;28.80;49.50
3051;DHT22;1535;51.098;6.414;2022-07-06T13:54:01;27.90;49.80
3051;DHT22;1535;51.098;6.414;2022-07-06T13:56:28;28.10;49.30
3051;DHT22;1535;51.098;6.414;2022-07-06T13:58:55;28.30;48.60
3051;DHT22;1535;51.098;6.414;2022-07-06T14:01:22;28.10;48.60
3051;DHT22;1535;51.098;6.414;2022-07-06T14:03:49;28.20;49.30
3051;DHT22;1535;51.098;6.414;2022-07-06T14:06:19;28.40;49.20
3051;DHT22;1535;51.098;6.414;2022-07-06T14:08:46;28.50;48.90
3051;DHT22;1535;51.098;6.414;2022-07-06T14:11:13;28.90;48.40
3051;DHT22;1535;51.098;6.414;2022-07-06T14:13:40;29.20;47.00
3051;DHT22;1535;51.098;6.414;2022-07-06T14:16:07;29.10;47.40
3051;DHT22;1535;51.098;6.414;2022-07-06T14:18:34;28.70;47.40
3051;DHT22;1535;51.098;6.414;2022-07-06T14:21:00;29.30;46.90
3051;DHT22;1535;51.098;6.414;2022-07-06T14:23:30;30.00;46.90
3051;DHT22;1535;51.098;6.414;2022-07-06T14:25:57;29.40;45.90
3051;DHT22;1535;51.098;6.414;2022-07-06T14:28:24;29.70;45.10
3051;DHT22;1535;51.098;6.414;2022-07-06T14:30:51;30.30;44.60
3051;DHT22;1535;51.098;6.414;2022-07-06T14:33:18;29.70;45.00
3051;DHT22;1535;51.098;6.414;2022-07-06T14:35:46;29.30;44.90
3051;DHT22;1535;51.098;6.414;2022-07-06T14:38:14;29.00;46.40
3051;DHT22;1535;51.098;6.414;2022-07-06T14:40:43;29.30;45.70
3051;DHT22;1535;51.098;6.414;2022-07-06T14:43:10;28.90;45.70
3051;DHT22;1535;51.098;6.414;2022-07-06T14:45:37;28.30;46.90
3051;DHT22;1535;51.098;6.414;2022-07-06T14:48:05;28.40;46.30
3051;DHT22;1535;51.098;6.414;2022-07-06T14:50:32;28.70;45.30
3051;DHT22;1535;51.098;6.414;2022-07-06T14:53:00;28.10;45.60
3051;DHT22;1535;51.098;6.414;2022-07-06T14:55:26;28.00;46.50
3051;DHT22;1535;51.098;6.414;2022-07-06T14:57:55;28.30;45.80
3051;DHT22;1535;51.098;6.414;2022-07-06T15:00:23;29.10;46.70
3051;DHT22;1535;51.098;6.414;2022-07-06T15:02:49;29.50;44.80
3051;DHT22;1535;51.098;6.414;2022-07-06T15:05:16;29.50;44.40
3051;DHT22;1535;51.098;6.414;2022-07-06T15:07:43;29.00;44.50
3051;DHT22;1535;51.098;6.414;2022-07-06T15:10:10;28.70;45.60
3051;DHT22;1535;51.098;6.414;2022-07-06T15:12:37;28.40;45.20
3051;DHT22;1535;51.098;6.414;2022-07-06T15:15:06;28.80;44.10
3051;DHT22;1535;51.098;6.414;2022-07-06T15:17:33;29.70;43.30
3051;DHT22;1535;51.098;6.414;2022-07-06T15:20:00;30.00;44.70
3051;DHT22;1535;51.098;6.414;2022-07-06T15:22:27;29.50;43.50
3051;DHT22;1535;51.098;6.414;2022-07-06T15:24:54;29.00;43.70
3051;DHT22;1535;51.098;6.414;2022-07-06T15:27:21;28.00;45.50
3051;DHT22;1535;51.098;6.414;2022-07-06T15:29:48;27.90;44.90
3051;DHT22;1535;51.098;6.414;2022-07-06T15:32:16;28.10;45.40
3051;DHT22;1535;51.098;6.414;2022-07-06T15:34:43;28.50;45.90
3051;DHT22;1535;51.098;6.414;2022-07-06T15:37:10;28.50;45.40
3051;DHT22;1535;51.098;6.414;2022-07-06T15:39:37;28.80;45.90
3051;DHT22;1535;51.098;6.414;2022-07-06T15:42:04;29.00;44.20
3051;DHT22;1535;51.098;6.414;2022-07-06T15:44:31;29.70;43.50
3051;DHT22;1535;51.098;6.414;2022-07-06T15:47:03;29.80;43.70
3051;DHT22;1535;51.098;6.414;2022-07-06T15:49:33;29.60;43.10
3051;DHT22;1535;51.098;6.414;2022-07-06T15:51:59;29.10;44.20
3051;DHT22;1535;51.098;6.414;2022-07-06T15:54:26;28.70;45.90
3051;DHT22;1535;51.098;6.414;2022-07-06T15:56:53;28.60;45.20
3051;DHT22;1535;51.098;6.414;2022-07-06T15:59:20;28.40;46.40
3051;DHT22;1535;51.098;6.414;2022-07-06T16:01:48;28.40;45.60
3051;DHT22;1535;51.098;6.414;2022-07-06T16:04:15;28.00;45.80
3051;DHT22;1535;51.098;6.414;2022-07-06T16:06:43;27.90;45.60
3051;DHT22;1535;51.098;6.414;2022-07-06T16:09:10;27.80;46.10